createdAt,value
2023-01-21T00:01:15.152Z,102549.94
2023-01-21T00:03:43.370Z,102553.44
2023-01-21T00:06:14.975Z,102564.69
2023-01-21T00:08:43.288Z,102556.44
2023-01-21T00:11:14.451Z,102570.78
2023-01-21T00:13:43.080Z,102573.97
2023-01-21T00:16:12.451Z,102568.50
2023-01-21T00:18:40.451Z,102549.41
2023-01-21T00:21:08.473Z,102571.09
2023-01-21T00:23:37.857Z,102579.28
2023-01-21T00:26:08.193Z,102584.38
2023-01-21T00:28:37.486Z,102579.72
2023-01-21T00:31:07.932Z,102592.97
2023-01-21T00:33:37.753Z,102598.56
2023-01-21T00:36:07.941Z,102598.78
2023-01-21T00:38:37.825Z,102608.63
2023-01-21T00:41:07.799Z,102600.28
2023-01-21T00:43:36.319Z,102600.38
2023-01-21T00:46:04.759Z,102610.00
2023-01-21T00:48:33.309Z,102611.66
2023-01-21T00:51:01.747Z,102611.66
2023-01-21T00:53:31.204Z,102608.94
2023-01-21T00:56:05.548Z,102614.28
2023-01-21T00:58:34.042Z,102616.25
2023-01-21T01:01:03.736Z,102617.47
2023-01-21T01:03:31.856Z,102633.81
2023-01-21T01:06:03.497Z,102635.84
2023-01-21T01:08:31.467Z,102642.16
2023-01-21T01:10:59.788Z,102642.94
2023-01-21T01:13:29.923Z,102641.13
2023-01-21T01:15:58.748Z,102648.50
2023-01-21T01:18:28.805Z,102652.88
2023-01-21T01:20:57.167Z,102640.63
2023-01-21T01:23:25.637Z,102626.34
2023-01-21T01:25:57.817Z,102645.72
2023-01-21T01:28:26.246Z,102649.28
2023-01-21T01:30:56.204Z,102646.59
2023-01-21T01:33:24.612Z,102642.25
2023-01-21T01:35:53.305Z,102656.78
2023-01-21T01:38:23.039Z,102655.91
2023-01-21T01:40:53.192Z,102655.81
2023-01-21T01:43:23.370Z,102668.22
2023-01-21T01:45:52.053Z,102658.59
2023-01-21T01:48:27.375Z,102668.03
2023-01-21T01:50:57.970Z,102676.72
2023-01-21T01:53:27.705Z,102682.88
2023-01-21T01:55:56.435Z,102683.75
2023-01-21T01:58:24.633Z,102680.81
2023-01-21T02:00:52.627Z,102680.53
2023-01-21T02:03:39.514Z,102687.75
2023-01-21T02:06:07.964Z,102687.03
2023-01-21T02:08:36.513Z,102693.31
2023-01-21T02:11:11.649Z,102699.28
2023-01-21T02:13:40.169Z,102697.16
2023-01-21T02:16:29.286Z,102701.75
2023-01-21T02:19:12.684Z,102699.16
2023-01-21T02:21:59.469Z,102703.06
2023-01-21T02:25:16.506Z,102706.13
2023-01-21T02:27:54.043Z,102718.47
2023-01-21T02:30:42.355Z,102722.03
2023-01-21T02:33:37.057Z,102726.53
2023-01-21T02:36:15.968Z,102729.41
2023-01-21T02:38:53.619Z,102732.81
2023-01-21T02:41:29.688Z,102738.03
2023-01-21T02:44:07.947Z,102743.41
2023-01-21T02:46:44.073Z,102745.06
2023-01-21T02:49:22.696Z,102757.28
2023-01-21T02:51:50.828Z,102730.19
2023-01-21T02:54:50.850Z,102763.19
2023-01-21T02:57:31.621Z,102762.66
2023-01-21T03:00:01.681Z,102762.16
2023-01-21T03:02:47.630Z,102736.25
2023-01-21T03:05:26.365Z,102756.09
2023-01-21T03:08:01.744Z,102764.09
2023-01-21T03:10:36.089Z,102767.56
2023-01-21T03:13:08.264Z,102775.75
2023-01-21T03:15:57.430Z,102773.81
2023-01-21T03:18:30.615Z,102783.56
2023-01-21T03:21:04.666Z,102784.31
2023-01-21T03:23:37.889Z,102797.63
2023-01-21T03:26:08.569Z,102798.50
2023-01-21T03:28:43.053Z,102805.88
2023-01-21T03:31:19.709Z,102809.53
2023-01-21T03:33:52.439Z,102802.25
2023-01-21T03:36:28.085Z,102805.59
2023-01-21T03:38:57.556Z,102807.63
2023-01-21T03:41:32.108Z,102811.97
2023-01-21T03:44:00.480Z,102820.13
2023-01-21T03:46:37.758Z,102825.63
2023-01-21T03:49:11.305Z,102822.22
2023-01-21T03:51:46.351Z,102820.94
2023-01-21T03:54:14.461Z,102827.56
2023-01-21T03:56:42.433Z,102834.13
2023-01-21T03:59:10.412Z,102833.25
2023-01-21T04:01:39.547Z,102837.69
2023-01-21T04:04:07.787Z,102840.19
2023-01-21T04:06:36.757Z,102842.09
2023-01-21T04:09:06.753Z,102840.44
2023-01-21T04:11:34.853Z,102847.81
2023-01-21T04:14:03.088Z,102847.59
2023-01-21T04:16:31.226Z,102847.47
2023-01-21T04:18:59.160Z,102856.53
2023-01-21T04:21:27.281Z,102861.72
2023-01-21T04:23:55.257Z,102857.47
2023-01-21T04:26:24.637Z,102870.00
2023-01-21T04:28:52.586Z,102885.13
2023-01-21T04:31:20.668Z,102873.91
2023-01-21T04:33:48.603Z,102891.78
2023-01-21T04:36:16.635Z,102893.69
2023-01-21T04:38:44.516Z,102889.19
2023-01-21T04:41:12.471Z,102885.38
2023-01-21T04:43:41.869Z,102899.53
2023-01-21T04:46:09.945Z,102907.63
2023-01-21T04:48:37.952Z,102907.72
2023-01-21T04:51:07.990Z,102915.88
2023-01-21T04:53:36.164Z,102914.31
2023-01-21T04:56:04.549Z,102914.63
2023-01-21T04:58:32.625Z,102921.22
2023-01-21T05:01:02.025Z,102933.13
2023-01-21T05:03:30.079Z,102924.50
2023-01-21T05:05:58.110Z,102927.44
2023-01-21T05:08:26.077Z,102926.66
2023-01-21T05:10:53.995Z,102924.91
2023-01-21T05:13:21.918Z,102932.81
2023-01-21T05:15:50.087Z,102932.81
2023-01-21T05:18:19.474Z,102925.00
2023-01-21T05:20:47.479Z,102934.09
2023-01-21T05:23:15.332Z,102935.06
2023-01-21T05:25:43.296Z,102949.13
2023-01-21T05:28:11.229Z,102945.41
2023-01-21T05:30:41.034Z,102948.03
2023-01-21T05:33:09.762Z,102955.41
2023-01-21T05:35:39.086Z,102961.66
2023-01-21T05:38:07.071Z,102970.63
2023-01-21T05:40:35.145Z,102965.13
2023-01-21T05:43:03.264Z,102964.09
2023-01-21T05:45:31.186Z,102965.75
2023-01-21T05:47:59.147Z,102977.31
2023-01-21T05:50:27.224Z,102980.25
2023-01-21T05:52:56.518Z,102986.34
2023-01-21T05:55:24.479Z,102998.06
2023-01-21T05:57:52.426Z,102988.09
2023-01-21T06:00:21.075Z,102992.38
2023-01-21T06:02:49.303Z,102990.72
2023-01-21T06:05:17.397Z,102983.97
2023-01-21T06:07:45.457Z,102990.31
2023-01-21T06:10:14.861Z,102993.34
2023-01-21T06:12:42.943Z,102997.13
2023-01-21T06:15:11.660Z,102997.28
2023-01-21T06:17:40.873Z,103001.09
2023-01-21T06:20:10.464Z,103013.63
2023-01-21T06:22:38.495Z,103019.69
2023-01-21T06:25:07.178Z,103024.91
2023-01-21T06:27:38.384Z,103027.38
2023-01-21T06:30:07.905Z,103026.34
2023-01-21T06:32:37.089Z,103028.97
2023-01-21T06:35:05.809Z,103041.47
2023-01-21T06:37:34.141Z,103043.31
2023-01-21T06:40:02.116Z,103041.31
2023-01-21T06:42:30.129Z,103048.44
2023-01-21T06:44:59.565Z,103053.69
2023-01-21T06:47:27.506Z,103060.78
2023-01-21T06:49:55.437Z,103051.19
2023-01-21T06:52:23.711Z,103062.06
2023-01-21T06:54:51.646Z,103066.50
2023-01-21T06:57:19.667Z,103076.25
2023-01-21T06:59:47.631Z,103078.94
2023-01-21T07:02:16.976Z,103079.59
2023-01-21T07:04:45.587Z,103080.75
2023-01-21T07:07:13.585Z,103086.38
2023-01-21T07:09:41.501Z,103079.50
2023-01-21T07:12:09.417Z,103084.94
2023-01-21T07:14:37.355Z,103084.25
2023-01-21T07:17:05.687Z,103080.53
2023-01-21T07:19:35.189Z,103077.81
2023-01-21T07:22:03.246Z,103082.25
2023-01-21T07:24:31.201Z,103077.81
2023-01-21T07:26:59.277Z,103078.03
2023-01-21T07:29:28.012Z,103086.19
2023-01-21T07:31:56.093Z,103087.13
2023-01-21T07:34:24.094Z,103098.88
2023-01-21T07:36:53.394Z,103101.63
2023-01-21T07:39:21.358Z,103107.16
2023-01-21T07:41:49.469Z,103103.69
2023-01-21T07:44:18.936Z,103105.44
2023-01-21T07:46:47.026Z,103114.44
2023-01-21T07:49:17.430Z,103107.34
2023-01-21T07:51:45.627Z,103111.91
2023-01-21T07:54:15.736Z,103112.72
2023-01-21T07:56:43.839Z,103125.16
2023-01-21T07:59:13.355Z,103116.84
2023-01-21T08:01:41.639Z,103128.53
2023-01-21T08:04:09.885Z,103128.41
2023-01-21T08:06:41.387Z,103136.41
2023-01-21T08:09:09.629Z,103132.50
2023-01-21T08:11:39.030Z,103134.50
2023-01-21T08:14:07.078Z,103147.19
2023-01-21T08:16:35.291Z,103150.91
2023-01-21T08:19:03.427Z,103149.13
2023-01-21T08:21:31.425Z,103151.84
2023-01-21T08:23:59.505Z,103150.97
2023-01-21T08:26:27.564Z,103151.03
2023-01-21T08:28:57.174Z,103150.06
2023-01-21T08:31:25.144Z,103147.47
2023-01-21T08:33:53.202Z,103143.13
2023-01-21T08:36:21.203Z,103146.75
2023-01-21T08:38:49.275Z,103152.78
2023-01-21T08:41:17.889Z,103155.47
2023-01-21T08:43:47.051Z,103160.84
2023-01-21T08:46:16.353Z,103168.13
2023-01-21T08:48:44.277Z,103178.03
2023-01-21T08:51:12.337Z,103184.03
2023-01-21T08:53:40.388Z,103187.63
2023-01-21T08:56:08.627Z,103188.41
2023-01-21T08:58:37.051Z,103188.34
2023-01-21T09:01:08.922Z,103186.59
2023-01-21T09:03:38.588Z,103185.00
2023-01-21T09:06:08.328Z,103190.16
2023-01-21T09:08:37.344Z,103189.22
2023-01-21T09:11:07.192Z,103182.38
2023-01-21T09:13:37.439Z,103198.16
2023-01-21T09:16:10.148Z,103201.97
2023-01-21T09:18:39.574Z,103200.44
2023-01-21T09:21:08.785Z,103212.22
2023-01-21T09:23:38.118Z,103216.00
2023-01-21T09:26:08.487Z,103224.16
2023-01-21T09:28:37.807Z,103207.75
2023-01-21T09:31:08.020Z,103208.56
2023-01-21T09:33:41.074Z,103234.69
2023-01-21T09:36:13.482Z,103245.25
2023-01-21T09:38:43.917Z,103244.16
2023-01-21T09:41:23.533Z,103253.75
2023-01-21T09:43:58.894Z,103250.84
2023-01-21T09:46:33.797Z,103259.88
2023-01-21T09:49:06.739Z,103259.13
2023-01-21T09:51:52.252Z,103274.38
2023-01-21T09:54:26.629Z,103266.06
2023-01-21T09:57:30.146Z,103274.63
2023-01-21T10:00:14.389Z,103269.03
2023-01-21T10:02:50.775Z,103269.91
2023-01-21T10:05:40.359Z,103269.97
2023-01-21T10:08:19.226Z,103262.06
2023-01-21T10:10:52.623Z,103262.91
2023-01-21T10:13:43.773Z,103255.56
2023-01-21T10:16:18.944Z,103245.91
2023-01-21T10:18:49.715Z,103241.44
2023-01-21T10:21:30.731Z,103251.94
2023-01-21T10:24:05.370Z,103246.91
2023-01-21T10:26:35.787Z,103246.91
2023-01-21T10:29:04.107Z,103250.31
2023-01-21T10:31:40.180Z,103254.13
2023-01-21T10:34:13.671Z,103261.56
2023-01-21T10:36:56.585Z,103265.63
2023-01-21T10:39:35.795Z,103263.78
2023-01-21T10:42:32.365Z,103254.13
2023-01-21T10:45:08.356Z,103245.16
2023-01-21T10:47:43.406Z,103241.03
2023-01-21T10:50:29.752Z,103247.22
2023-01-21T10:53:07.901Z,103245.25
2023-01-21T10:55:48.135Z,103248.75
2023-01-21T10:58:27.266Z,103241.59
2023-01-21T11:00:58.905Z,103247.81
2023-01-21T11:03:35.401Z,103255.34
2023-01-21T11:06:06.963Z,103254.13
2023-01-21T11:08:36.643Z,103251.34
2023-01-21T11:11:07.445Z,103252.06
2023-01-21T11:13:35.469Z,103246.91
2023-01-21T11:16:04.674Z,103251.56
2023-01-21T11:18:36.833Z,103248.00
2023-01-21T11:21:17.633Z,103225.31
2023-01-21T11:23:54.936Z,103258.34
2023-01-21T11:26:26.280Z,103231.06
2023-01-21T11:29:14.276Z,103256.78
2023-01-21T11:31:43.251Z,103251.31
2023-01-21T11:34:15.345Z,103252.84
2023-01-21T11:36:56.552Z,103246.56
2023-01-21T11:39:26.885Z,103251.03
2023-01-21T11:41:55.625Z,103243.88
2023-01-21T11:44:24.959Z,103250.06
2023-01-21T11:46:53.277Z,103251.09
2023-01-21T11:49:25.021Z,103240.53
2023-01-21T11:52:13.762Z,103253.47
2023-01-21T11:54:43.417Z,103250.06
2023-01-21T11:57:23.726Z,103229.03
2023-01-21T11:59:53.327Z,103245.50
2023-01-21T12:02:24.363Z,103244.25
2023-01-21T12:04:55.070Z,103244.97
2023-01-21T12:07:26.729Z,103258.44
2023-01-21T12:10:07.152Z,103251.44
2023-01-21T12:12:53.688Z,103256.03
2023-01-21T12:15:38.494Z,103263.31
2023-01-21T12:18:21.102Z,103261.56
2023-01-21T12:20:59.511Z,103262.66
2023-01-21T12:23:55.691Z,103263.75
2023-01-21T12:26:41.330Z,103268.91
2023-01-21T12:29:26.142Z,103255.38
2023-01-21T12:32:00.151Z,103252.69
2023-01-21T12:34:34.223Z,103265.34
2023-01-21T12:37:06.061Z,103266.47
2023-01-21T12:39:37.534Z,103268.28
2023-01-21T12:42:14.946Z,103243.75
2023-01-21T12:44:49.336Z,103262.19
2023-01-21T12:47:28.042Z,103254.09
2023-01-21T12:50:07.994Z,103267.47
2023-01-21T12:52:43.035Z,103267.47
2023-01-21T12:55:21.834Z,103270.09
2023-01-21T12:57:56.971Z,103266.59
2023-01-21T13:00:27.652Z,103267.84
2023-01-21T13:03:11.208Z,103264.94
2023-01-21T13:05:47.497Z,103263.03
2023-01-21T13:08:39.706Z,103271.84
2023-01-21T13:11:17.109Z,103266.69
2023-01-21T13:13:55.447Z,103267.78
2023-01-21T13:16:26.094Z,103271.72
2023-01-21T13:18:55.204Z,103267.22
2023-01-21T13:21:37.066Z,103265.03
2023-01-21T13:24:16.940Z,103268.34
2023-01-21T13:26:52.880Z,103250.59
2023-01-21T13:29:32.068Z,103250.59
2023-01-21T13:32:24.870Z,103243.38
2023-01-21T13:35:06.811Z,103254.94
2023-01-21T13:37:43.288Z,103251.31
2023-01-21T13:40:25.839Z,103250.59
2023-01-21T13:45:44.286Z,103271.69
2023-01-21T13:48:27.139Z,103272.50
2023-01-21T13:51:12.940Z,103260.84
2023-01-21T13:53:59.660Z,103265.19
2023-01-21T13:56:43.910Z,103270.59
2023-01-21T13:59:17.223Z,103265.84
2023-01-21T14:01:51.925Z,103265.72
2023-01-21T14:04:26.846Z,103270.19
2023-01-21T14:07:01.818Z,103265.56
2023-01-21T14:09:38.376Z,103270.03
2023-01-21T14:12:16.747Z,103267.19
2023-01-21T14:15:16.780Z,103276.22
2023-01-21T14:18:03.337Z,103262.72
2023-01-21T14:20:45.501Z,103269.94
2023-01-21T14:23:23.903Z,103269.06
2023-01-21T14:26:05.073Z,103269.94
2023-01-21T14:28:39.644Z,103267.38
2023-01-21T14:31:13.633Z,103261.84
2023-01-21T14:33:48.726Z,103265.28
2023-01-21T14:36:20.914Z,103268.91
2023-01-21T14:39:02.010Z,103280.28
2023-01-21T14:41:54.983Z,103279.25
2023-01-21T14:44:39.789Z,103283.75
2023-01-21T14:47:15.925Z,103291.75
2023-01-21T14:49:46.916Z,103298.75
2023-01-21T14:52:17.064Z,103309.44
2023-01-21T14:54:46.514Z,103326.41
2023-01-21T14:57:27.545Z,103329.03
2023-01-21T15:00:03.835Z,103321.97
2023-01-21T15:02:34.319Z,103328.16
2023-01-21T15:05:16.555Z,103327.13
2023-01-21T15:07:46.753Z,103323.41
2023-01-21T15:10:19.833Z,103329.69
2023-01-21T15:12:52.914Z,103317.94
2023-01-21T15:15:31.019Z,103329.59
2023-01-21T15:18:18.231Z,103320.88
2023-01-21T15:20:50.727Z,103324.44
2023-01-21T15:23:21.465Z,103334.44
2023-01-21T15:26:19.259Z,103337.81
2023-01-21T15:28:49.401Z,103353.94
2023-01-21T15:31:45.711Z,103348.59
2023-01-21T15:34:16.096Z,103317.34
2023-01-21T15:36:47.690Z,103342.03
2023-01-21T15:39:18.322Z,103351.53
2023-01-21T15:41:59.045Z,103351.47
2023-01-21T15:44:45.274Z,103355.13
2023-01-21T15:47:29.570Z,103358.56
2023-01-21T15:50:04.891Z,103365.75
2023-01-21T15:52:53.616Z,103372.81
2023-01-21T15:55:33.274Z,103369.81
2023-01-21T15:58:13.987Z,103370.06
2023-01-21T16:00:52.747Z,103374.06
2023-01-21T16:03:25.676Z,103378.34
2023-01-21T16:06:02.024Z,103386.94
2023-01-21T16:08:51.755Z,103384.84
2023-01-21T16:11:41.485Z,103388.03
2023-01-21T16:14:23.153Z,103378.88
2023-01-21T16:17:00.828Z,103388.50
2023-01-21T16:19:32.952Z,103386.59
2023-01-21T16:22:05.054Z,103389.25
2023-01-21T16:24:41.241Z,103389.94
2023-01-21T16:27:19.573Z,103392.44
2023-01-21T16:29:47.557Z,103392.44
2023-01-21T16:32:20.318Z,103372.28
2023-01-21T16:34:48.563Z,103394.81
2023-01-21T16:37:18.533Z,103395.53
2023-01-21T16:39:48.045Z,103395.53
2023-01-21T16:42:30.503Z,103400.00
2023-01-21T16:44:59.705Z,103398.38
2023-01-21T16:47:32.419Z,103402.91
2023-01-21T16:50:00.628Z,103405.59
2023-01-21T16:52:29.949Z,103397.81
2023-01-21T16:54:59.403Z,103415.22
2023-01-21T16:57:31.712Z,103412.59
2023-01-21T17:00:02.623Z,103407.25
2023-01-21T17:02:32.899Z,103403.78
2023-01-21T17:05:04.707Z,103396.81
2023-01-21T17:07:36.102Z,103405.09
2023-01-21T17:10:07.830Z,103411.31
2023-01-21T17:12:36.577Z,103414.16
2023-01-21T17:15:14.540Z,103410.56
2023-01-21T17:17:42.682Z,103421.44
2023-01-21T17:20:35.403Z,103426.00
2023-01-21T17:23:04.824Z,103427.50
2023-01-21T17:25:36.221Z,103424.59
2023-01-21T17:28:17.776Z,103421.50
2023-01-21T17:30:45.923Z,103419.19
2023-01-21T17:33:30.601Z,103420.78
2023-01-21T17:36:10.843Z,103430.53
2023-01-21T17:38:43.718Z,103427.50
2023-01-21T17:41:24.703Z,103428.97
2023-01-21T17:43:55.631Z,103419.78
2023-01-21T17:46:24.748Z,103428.50
2023-01-21T17:48:55.776Z,103440.84
2023-01-21T17:51:27.338Z,103435.47
2023-01-21T17:53:58.900Z,103434.31
2023-01-21T17:56:40.977Z,103443.28
2023-01-21T17:59:38.107Z,103457.91
2023-01-21T18:02:10.942Z,103453.50
2023-01-21T18:04:39.455Z,103447.25
2023-01-21T18:07:15.975Z,103449.91
2023-01-21T18:09:44.309Z,103450.94
2023-01-21T18:12:13.591Z,103446.25
2023-01-21T18:14:42.350Z,103455.06
2023-01-21T18:17:15.922Z,103445.19
2023-01-21T18:19:43.966Z,103451.28
2023-01-21T18:22:23.372Z,103451.22
2023-01-21T18:24:51.541Z,103444.31
2023-01-21T18:27:25.675Z,103445.97
2023-01-21T18:29:54.550Z,103449.47
2023-01-21T18:32:22.525Z,103439.34
2023-01-21T18:34:50.539Z,103445.38
2023-01-21T18:37:20.944Z,103445.22
2023-01-21T18:39:48.967Z,103446.91
2023-01-21T18:42:18.243Z,103446.91
2023-01-21T18:44:47.678Z,103444.16
2023-01-21T18:47:17.227Z,103443.28
2023-01-21T18:49:45.408Z,103448.44
2023-01-21T18:52:15.956Z,103450.84
2023-01-21T18:54:43.963Z,103455.22
2023-01-21T18:57:12.779Z,103450.91
2023-01-21T18:59:40.805Z,103451.00
2023-01-21T19:02:13.797Z,103451.88
2023-01-21T19:04:41.846Z,103452.00
2023-01-21T19:07:15.002Z,103441.22
2023-01-21T19:09:46.118Z,103443.94
2023-01-21T19:12:16.473Z,103435.09
2023-01-21T19:14:44.488Z,103449.19
2023-01-21T19:17:14.519Z,103427.34
2023-01-21T19:19:42.521Z,103451.78
2023-01-21T19:22:13.512Z,103462.34
2023-01-21T19:24:41.630Z,103469.56
2023-01-21T19:27:15.706Z,103472.19
2023-01-21T19:29:43.817Z,103471.31
2023-01-21T19:32:15.645Z,103471.16
2023-01-21T19:34:43.978Z,103467.81
2023-01-21T19:37:15.046Z,103481.06
2023-01-21T19:39:43.310Z,103486.53
2023-01-21T19:42:11.864Z,103482.03
2023-01-21T19:44:40.400Z,103476.66
2023-01-21T19:47:17.812Z,103490.13
2023-01-21T19:49:45.917Z,103485.75
2023-01-21T19:52:15.225Z,103488.72
2023-01-21T19:54:43.251Z,103493.34
2023-01-21T19:57:14.894Z,103494.41
2023-01-21T19:59:43.554Z,103497.34
2023-01-21T20:02:12.375Z,103495.72
2023-01-21T20:04:41.722Z,103500.31
2023-01-21T20:07:13.920Z,103501.28
2023-01-21T20:09:42.120Z,103501.28
2023-01-21T20:12:12.389Z,103495.78
2023-01-21T20:14:40.444Z,103493.88
2023-01-21T20:17:14.245Z,103503.59
2023-01-21T20:19:43.741Z,103496.31
2023-01-21T20:22:13.654Z,103501.63
2023-01-21T20:24:41.701Z,103492.59
2023-01-21T20:27:15.151Z,103490.78
2023-01-21T20:29:55.549Z,103492.69
2023-01-21T20:32:30.425Z,103500.69
2023-01-21T20:34:59.792Z,103503.28
2023-01-21T20:37:27.740Z,103509.56
2023-01-21T20:39:55.770Z,103506.06
2023-01-21T20:42:23.806Z,103508.69
2023-01-21T20:44:51.914Z,103501.47
2023-01-21T20:47:27.637Z,103503.25
2023-01-21T20:50:19.925Z,103500.44
2023-01-21T20:52:48.828Z,103503.16
2023-01-21T20:55:20.718Z,103482.19
2023-01-21T20:57:49.217Z,103510.16
2023-01-21T21:00:19.658Z,103510.16
2023-01-21T21:02:49.087Z,103511.22
2023-01-21T21:05:19.726Z,103494.53
2023-01-21T21:07:48.265Z,103513.94
2023-01-21T21:10:21.223Z,103509.34
2023-01-21T21:12:49.684Z,103496.69
2023-01-21T21:15:19.497Z,103493.03
2023-01-21T21:17:48.065Z,103503.00
2023-01-21T21:20:20.119Z,103502.88
2023-01-21T21:22:48.276Z,103504.63
2023-01-21T21:25:17.752Z,103502.72
2023-01-21T21:27:46.541Z,103494.69
2023-01-21T21:30:16.421Z,103508.25
2023-01-21T21:32:44.502Z,103510.03
2023-01-21T21:35:32.151Z,103513.66
2023-01-21T21:38:03.993Z,103501.94
2023-01-21T21:40:32.347Z,103512.72
2023-01-21T21:43:17.826Z,103517.09
2023-01-21T21:46:00.026Z,103514.38
2023-01-21T21:48:39.839Z,103509.84
2023-01-21T21:51:10.759Z,103509.69
2023-01-21T21:53:40.033Z,103509.66
2023-01-21T21:56:10.958Z,103505.06
2023-01-21T21:58:39.174Z,103509.56
2023-01-21T22:01:12.043Z,103502.41
2023-01-21T22:03:40.725Z,103508.47
2023-01-21T22:06:10.892Z,103516.34
2023-01-21T22:08:40.381Z,103517.28
2023-01-21T22:11:10.794Z,103523.47
2023-01-21T22:13:40.379Z,103514.53
2023-01-21T22:16:11.918Z,103527.03
2023-01-21T22:18:40.633Z,103521.75
2023-01-21T22:21:12.782Z,103529.84
2023-01-21T22:23:40.869Z,103522.63
2023-01-21T22:26:12.372Z,103526.34
2023-01-21T22:28:40.942Z,103532.66
2023-01-21T22:31:11.091Z,103529.88
2023-01-21T22:33:40.341Z,103533.69
2023-01-21T22:36:12.342Z,103523.78
2023-01-21T22:38:40.898Z,103526.53
2023-01-21T22:41:10.583Z,103520.22
2023-01-21T22:43:41.837Z,103529.09
2023-01-21T22:46:12.033Z,103530.84
2023-01-21T22:48:41.469Z,103520.34
2023-01-21T22:51:13.029Z,103532.59
2023-01-21T22:53:41.392Z,103535.28
2023-01-21T22:56:09.633Z,103535.50
2023-01-21T22:58:38.031Z,103539.09
2023-01-21T23:01:06.974Z,103540.03
2023-01-21T23:03:35.259Z,103541.00
2023-01-21T23:06:04.921Z,103550.09
2023-01-21T23:08:34.395Z,103548.34
2023-01-21T23:11:04.185Z,103543.03
2023-01-21T23:13:32.513Z,103545.72
2023-01-21T23:16:00.817Z,103543.72
2023-01-21T23:18:30.098Z,103544.53
2023-01-21T23:20:58.101Z,103535.44
2023-01-21T23:23:26.239Z,103534.63
2023-01-21T23:25:55.586Z,103538.44
2023-01-21T23:28:24.578Z,103527.78
2023-01-21T23:30:52.680Z,103529.47
2023-01-21T23:33:20.730Z,103533.03
2023-01-21T23:35:55.518Z,103529.38
2023-01-21T23:38:23.850Z,103529.38
2023-01-21T23:40:51.809Z,103530.25
2023-01-21T23:43:25.234Z,103532.81
2023-01-21T23:45:53.346Z,103528.34
2023-01-21T23:48:21.536Z,103527.50
2023-01-21T23:50:49.809Z,103538.19
2023-01-21T23:53:18.088Z,103541.78
2023-01-21T23:55:46.145Z,103538.28
2023-01-21T23:58:14.103Z,103532.00
